createdAt,value
2019-05-16T00:00:12.856Z,81.60
2019-05-16T00:03:08.475Z,81.60
2019-05-16T00:06:04.852Z,83.17
2019-05-16T00:09:02.525Z,85.60
2019-05-16T00:11:58.166Z,82.10
2019-05-16T00:14:55.180Z,80.60
2019-05-16T00:17:53.056Z,81.57
2019-05-16T00:20:51.095Z,81.22
2019-05-16T00:23:48.680Z,81.90
2019-05-16T00:26:43.071Z,84.50
2019-05-16T00:29:43.274Z,83.80
2019-05-16T00:32:43.635Z,82.60
2019-05-16T00:35:40.455Z,81.45
2019-05-16T00:38:38.416Z,83.73
2019-05-16T00:41:35.734Z,82.47
2019-05-16T00:44:32.577Z,83.33
2019-05-16T00:47:29.430Z,84.73
2019-05-16T00:50:28.542Z,82.80
2019-05-16T00:53:22.077Z,83.60
2019-05-16T00:56:18.853Z,85.13
2019-05-16T00:59:15.677Z,82.20
2019-05-16T01:02:14.091Z,84.20
2019-05-16T01:05:10.769Z,86.20
2019-05-16T01:08:10.007Z,83.67
2019-05-16T01:11:07.960Z,84.10
2019-05-16T01:14:02.622Z,84.47
2019-05-16T01:16:59.907Z,84.47
2019-05-16T01:19:58.030Z,83.53
2019-05-16T01:22:54.785Z,82.80
2019-05-16T01:25:51.581Z,82.00
2019-05-16T01:28:48.415Z,82.83
2019-05-16T01:31:44.244Z,84.17
2019-05-16T01:34:40.231Z,84.07
2019-05-16T01:37:38.452Z,97.50
2019-05-16T01:40:35.462Z,89.30
2019-05-16T01:43:31.943Z,86.90
2019-05-16T01:46:29.875Z,85.63
2019-05-16T01:49:27.989Z,89.87
2019-05-16T01:52:24.999Z,86.30
2019-05-16T01:55:21.629Z,89.27
2019-05-16T01:58:21.636Z,90.43
2019-05-16T02:01:22.185Z,91.20
2019-05-16T02:04:18.490Z,88.63
2019-05-16T02:07:14.825Z,86.75
2019-05-16T02:10:14.955Z,88.15
2019-05-16T02:13:12.877Z,88.53
2019-05-16T02:16:09.481Z,87.27
2019-05-16T02:19:08.188Z,86.10
2019-05-16T02:22:04.563Z,87.70
2019-05-16T02:25:00.698Z,89.40
2019-05-16T02:27:58.955Z,90.37
2019-05-16T02:30:55.679Z,83.97
2019-05-16T02:33:51.406Z,85.37
2019-05-16T02:37:09.576Z,85.73
2019-05-16T02:39:55.679Z,88.23
2019-05-16T02:42:55.964Z,86.77
2019-05-16T02:45:52.060Z,92.85
2019-05-16T02:48:47.475Z,86.70
2019-05-16T02:51:44.479Z,85.70
2019-05-16T02:54:51.782Z,86.97
2019-05-16T02:58:01.568Z,89.73
2019-05-16T03:01:01.467Z,89.23
2019-05-16T03:03:54.638Z,89.10
2019-05-16T03:06:51.404Z,88.13
2019-05-16T03:09:51.207Z,88.97
2019-05-16T03:12:44.986Z,91.78
2019-05-16T03:15:40.889Z,88.37
2019-05-16T03:18:41.355Z,87.57
2019-05-16T03:21:37.081Z,88.33
2019-05-16T03:24:34.072Z,88.90
2019-05-16T03:27:30.810Z,88.70
2019-05-16T03:30:26.630Z,86.63
2019-05-16T03:33:31.997Z,89.93
2019-05-16T03:36:24.314Z,89.93
2019-05-16T03:39:16.572Z,87.27
2019-05-16T03:42:12.717Z,86.90
2019-05-16T03:45:10.729Z,90.30
2019-05-16T03:48:06.382Z,87.23
2019-05-16T03:51:04.123Z,91.17
2019-05-16T03:54:02.810Z,88.07
2019-05-16T03:57:11.342Z,89.20
2019-05-16T04:00:17.132Z,88.57
2019-05-16T04:03:12.971Z,87.57
2019-05-16T04:06:11.828Z,87.83
2019-05-16T04:09:13.123Z,88.50
2019-05-16T04:12:10.833Z,92.80
2019-05-16T04:15:06.964Z,88.63
2019-05-16T04:18:02.585Z,92.37
2019-05-16T04:21:00.984Z,89.60
2019-05-16T04:24:01.013Z,89.60
2019-05-16T04:26:53.287Z,90.20
2019-05-16T04:29:51.274Z,90.53
2019-05-16T04:32:46.575Z,91.73
2019-05-16T04:35:43.216Z,90.27
2019-05-16T04:38:45.136Z,90.30
2019-05-16T04:41:40.719Z,91.10
2019-05-16T04:44:33.971Z,90.63
2019-05-16T04:47:31.716Z,90.50
2019-05-16T04:50:26.974Z,91.50
2019-05-16T04:53:22.707Z,91.27
2019-05-16T04:56:21.708Z,91.00
2019-05-16T04:59:16.823Z,91.00
2019-05-16T05:02:14.062Z,93.03
2019-05-16T05:05:12.559Z,91.82
2019-05-16T05:08:07.106Z,93.90
2019-05-16T05:11:03.517Z,94.20
2019-05-16T05:14:00.979Z,103.93
2019-05-16T05:16:56.454Z,92.50
2019-05-16T05:19:53.122Z,93.92
2019-05-16T05:22:50.566Z,90.97
2019-05-16T05:25:50.954Z,94.53
2019-05-16T05:28:44.378Z,94.10
2019-05-16T05:31:44.662Z,91.67
2019-05-16T05:34:39.770Z,96.47
2019-05-16T05:37:36.554Z,91.40
2019-05-16T05:40:33.235Z,94.00
2019-05-16T05:43:30.639Z,98.90
2019-05-16T05:46:27.254Z,92.57
2019-05-16T05:49:23.280Z,94.62
2019-05-16T05:52:20.776Z,95.77
2019-05-16T05:55:15.288Z,97.95
2019-05-16T05:58:11.999Z,93.00
2019-05-16T06:01:10.881Z,96.10
2019-05-16T06:04:04.204Z,97.53
2019-05-16T06:07:04.991Z,98.53
2019-05-16T06:10:00.794Z,92.60
2019-05-16T06:13:06.358Z,95.40
2019-05-16T06:16:14.978Z,94.53
2019-05-16T06:19:10.928Z,94.07
2019-05-16T06:22:06.119Z,93.90
2019-05-16T06:25:02.745Z,94.07
2019-05-16T06:28:00.557Z,94.40
2019-05-16T06:30:57.673Z,96.30
2019-05-16T06:33:55.561Z,95.07
2019-05-16T06:36:52.353Z,96.10
2019-05-16T06:39:50.137Z,93.00
2019-05-16T06:42:45.738Z,92.87
2019-05-16T06:45:41.835Z,93.70
2019-05-16T06:48:39.830Z,94.10
2019-05-16T06:51:34.790Z,97.63
2019-05-16T06:54:31.643Z,93.60
2019-05-16T06:57:32.508Z,94.07
2019-05-16T07:00:30.214Z,93.47
2019-05-16T07:03:25.715Z,96.90
2019-05-16T07:06:46.126Z,94.70
2019-05-16T07:09:17.512Z,92.27
2019-05-16T07:12:13.386Z,90.90
2019-05-16T07:15:12.190Z,88.80
2019-05-16T07:18:06.590Z,89.47
2019-05-16T07:21:02.207Z,93.40
2019-05-16T07:24:00.239Z,91.47
2019-05-16T07:26:57.531Z,93.00
2019-05-16T07:29:54.147Z,90.77
2019-05-16T07:32:53.624Z,96.90
2019-05-16T07:35:55.554Z,102.42
2019-05-16T07:38:52.230Z,94.57
2019-05-16T07:41:47.983Z,99.00
2019-05-16T07:44:45.747Z,94.93
2019-05-16T07:47:42.663Z,95.90
2019-05-16T07:50:40.446Z,93.67
2019-05-16T07:53:35.766Z,97.50
2019-05-16T07:56:31.580Z,104.00
2019-05-16T07:59:30.615Z,99.53
2019-05-16T08:02:27.436Z,95.35
2019-05-16T08:05:24.278Z,91.00
2019-05-16T08:08:23.846Z,92.17
2019-05-16T08:11:15.417Z,93.47
2019-05-16T08:14:13.351Z,99.00
2019-05-16T08:17:11.279Z,90.87
2019-05-16T08:20:07.011Z,92.47
2019-05-16T08:23:03.709Z,90.20
2019-05-16T08:26:04.844Z,91.85
2019-05-16T08:29:06.707Z,93.70
2019-05-16T08:32:03.394Z,89.07
2019-05-16T08:35:01.515Z,91.43
2019-05-16T08:37:56.895Z,90.83
2019-05-16T08:41:16.185Z,91.17
2019-05-16T08:43:53.379Z,90.60
2019-05-16T08:46:54.710Z,90.43
2019-05-16T08:49:44.654Z,90.80
2019-05-16T08:52:43.439Z,93.87
2019-05-16T08:55:42.926Z,92.70
2019-05-16T08:58:34.967Z,99.40
2019-05-16T09:07:26.540Z,90.38
2019-05-16T09:10:31.975Z,91.77
2019-05-16T09:10:32.873Z,91.90
2019-05-16T09:13:19.737Z,91.30
2019-05-16T09:16:18.235Z,91.60
2019-05-16T09:19:16.988Z,94.00
2019-05-16T09:22:12.645Z,92.67
2019-05-16T09:25:10.283Z,93.30
2019-05-16T09:28:08.010Z,96.37
2019-05-16T09:31:07.160Z,102.60
2019-05-16T09:34:07.247Z,92.25
2019-05-16T09:37:02.162Z,93.97
2019-05-16T09:39:57.953Z,91.10
2019-05-16T09:42:56.624Z,93.20
2019-05-16T09:45:51.132Z,98.40
2019-05-16T09:48:48.168Z,95.00
2019-05-16T09:51:43.685Z,90.40
2019-05-16T09:54:40.191Z,90.42
2019-05-16T09:57:37.736Z,90.40
2019-05-16T10:00:37.436Z,91.73
2019-05-16T10:03:32.085Z,92.37
2019-05-16T10:06:29.375Z,89.90
2019-05-16T10:09:41.391Z,90.40
2019-05-16T10:12:22.913Z,90.97
2019-05-16T10:15:20.628Z,89.17
2019-05-16T10:18:17.606Z,92.87
2019-05-16T10:21:17.895Z,91.87
2019-05-16T10:24:12.246Z,91.23
2019-05-16T10:27:08.819Z,91.67
2019-05-16T10:30:08.438Z,90.17
2019-05-16T10:33:03.045Z,93.87
2019-05-16T10:36:00.507Z,89.30
2019-05-16T10:38:59.159Z,90.40
2019-05-16T10:41:52.721Z,92.70
2019-05-16T10:44:49.865Z,90.30
2019-05-16T10:47:49.874Z,92.30
2019-05-16T10:50:53.192Z,91.20
2019-05-16T10:54:05.740Z,92.27
2019-05-16T10:56:46.982Z,89.00
2019-05-16T11:00:09.111Z,92.07
2019-05-16T11:02:38.962Z,93.70
2019-05-16T11:05:38.833Z,93.20
2019-05-16T11:08:31.883Z,94.63
2019-05-16T11:11:28.705Z,92.47
2019-05-16T11:14:27.966Z,95.77
2019-05-16T11:17:22.722Z,90.30
2019-05-16T11:20:27.108Z,90.23
2019-05-16T11:23:24.385Z,89.90
2019-05-16T11:26:21.997Z,94.90
2019-05-16T11:29:17.526Z,92.17
2019-05-16T11:32:14.903Z,91.80
2019-05-16T11:35:17.226Z,90.20
2019-05-16T11:38:13.538Z,90.50
2019-05-16T11:41:10.588Z,88.03
2019-05-16T11:44:06.827Z,88.67
2019-05-16T11:47:03.284Z,92.80
2019-05-16T11:49:59.000Z,91.27
2019-05-16T11:52:56.970Z,90.15
2019-05-16T11:55:57.687Z,92.27
2019-05-16T11:58:48.539Z,92.62
2019-05-16T12:01:47.419Z,89.67
2019-05-16T12:04:41.075Z,90.50
2019-05-16T12:07:44.341Z,90.37
2019-05-16T12:10:36.179Z,90.17
2019-05-16T12:13:32.967Z,89.43
2019-05-16T12:16:27.752Z,89.03
2019-05-16T12:19:23.383Z,89.03
2019-05-16T12:22:21.057Z,88.60
2019-05-16T12:25:17.723Z,90.60
2019-05-16T12:28:17.205Z,91.00
2019-05-16T12:31:13.027Z,90.30
2019-05-16T12:34:17.320Z,90.40
2019-05-16T12:37:15.037Z,89.70
2019-05-16T12:40:11.751Z,90.80
2019-05-16T12:43:12.571Z,89.40
2019-05-16T12:46:08.296Z,91.00
2019-05-16T12:49:07.054Z,89.67
2019-05-16T12:52:00.754Z,89.50
2019-05-16T12:54:57.210Z,89.07
2019-05-16T12:57:58.816Z,91.30
2019-05-16T13:00:58.277Z,89.87
2019-05-16T13:03:52.644Z,92.27
2019-05-16T13:06:53.963Z,92.70
2019-05-16T13:09:57.598Z,90.77
2019-05-16T13:12:58.017Z,92.47
2019-05-16T13:15:53.245Z,93.07
2019-05-16T13:18:50.906Z,93.12
2019-05-16T13:21:47.067Z,90.70
2019-05-16T13:24:47.691Z,103.07
2019-05-16T13:27:41.742Z,92.37
2019-05-16T13:30:42.721Z,88.80
2019-05-16T13:33:39.625Z,89.77
2019-05-16T13:36:38.602Z,91.30
2019-05-16T13:39:34.292Z,91.47
2019-05-16T13:42:29.971Z,89.77
2019-05-16T13:45:27.197Z,91.40
2019-05-16T13:48:22.226Z,88.50
2019-05-16T13:51:19.382Z,92.30
2019-05-16T13:54:17.686Z,87.20
2019-05-16T13:57:12.154Z,88.97
2019-05-16T14:00:09.216Z,86.95
2019-05-16T14:03:07.481Z,87.70
2019-05-16T14:06:03.842Z,90.50
2019-05-16T14:09:02.496Z,87.57
2019-05-16T14:11:58.596Z,90.03
2019-05-16T14:14:55.513Z,91.20
2019-05-16T14:17:52.984Z,89.70
2019-05-16T14:20:50.802Z,87.97
2019-05-16T14:23:53.357Z,87.97
2019-05-16T14:26:46.492Z,87.33
2019-05-16T14:29:42.961Z,89.00
2019-05-16T14:32:42.417Z,89.10
2019-05-16T14:35:37.398Z,89.90
2019-05-16T14:38:31.678Z,89.87
2019-05-16T14:41:30.032Z,100.20
2019-05-16T14:44:29.734Z,95.00
2019-05-16T14:47:27.311Z,91.60
2019-05-16T14:50:27.500Z,101.40
2019-05-16T14:53:20.607Z,91.70
2019-05-16T14:56:17.773Z,92.27
2019-05-16T14:59:13.968Z,92.90
2019-05-16T15:02:11.010Z,92.90
2019-05-16T15:05:09.586Z,95.20
2019-05-16T15:08:08.119Z,91.93
2019-05-16T15:11:04.331Z,90.57
2019-05-16T15:14:00.071Z,91.07
2019-05-16T15:16:57.638Z,90.62
2019-05-16T15:19:53.814Z,91.30
2019-05-16T15:22:51.621Z,90.50
2019-05-16T15:25:59.856Z,90.90
2019-05-16T15:28:58.889Z,90.30
2019-05-16T15:31:52.889Z,93.40
2019-05-16T15:34:49.701Z,92.80
2019-05-16T15:37:48.378Z,89.47
2019-05-16T15:40:47.908Z,92.40
2019-05-16T15:43:46.439Z,89.87
2019-05-16T15:46:44.176Z,92.70
2019-05-16T15:49:47.572Z,90.57
2019-05-16T15:52:42.919Z,95.77
2019-05-16T15:55:38.812Z,90.67
2019-05-16T15:58:37.510Z,89.97
2019-05-16T16:01:37.810Z,89.60
2019-05-16T16:04:31.768Z,91.87
2019-05-16T16:07:29.969Z,89.87
2019-05-16T16:10:27.191Z,91.40
2019-05-16T16:13:26.774Z,98.57
2019-05-16T16:16:23.346Z,90.53
2019-05-16T16:19:19.074Z,91.57
2019-05-16T16:22:17.764Z,91.90
2019-05-16T16:25:13.855Z,91.23
2019-05-16T16:28:11.499Z,94.43
2019-05-16T16:31:08.304Z,100.70
2019-05-16T16:34:07.446Z,91.87
2019-05-16T16:37:02.450Z,91.07
2019-05-16T16:39:57.714Z,93.77
2019-05-16T16:42:56.780Z,96.53
2019-05-16T16:46:04.311Z,108.40
2019-05-16T16:48:49.699Z,95.40
2019-05-16T16:51:57.063Z,96.53
2019-05-16T16:54:51.241Z,94.90
2019-05-16T16:57:47.394Z,93.60
2019-05-16T17:00:47.664Z,96.90
2019-05-16T17:03:41.687Z,93.27
2019-05-16T17:06:38.391Z,92.33
2019-05-16T17:09:34.614Z,93.00
2019-05-16T17:12:31.004Z,93.30
2019-05-16T17:15:27.860Z,92.80
2019-05-16T17:18:23.964Z,94.05
2019-05-16T17:21:20.545Z,97.30
2019-05-16T17:24:17.439Z,94.50
2019-05-16T17:27:14.257Z,93.67
2019-05-16T17:30:10.183Z,92.30
2019-05-16T17:33:08.201Z,94.00
2019-05-16T17:36:08.657Z,92.20
2019-05-16T17:39:00.877Z,92.63
2019-05-16T17:42:07.458Z,92.20
2019-05-16T17:45:07.373Z,95.17
2019-05-16T17:48:09.308Z,95.37
2019-05-16T17:51:08.926Z,93.70
2019-05-16T17:54:07.664Z,92.60
2019-05-16T17:57:03.761Z,93.10
2019-05-16T18:00:00.783Z,93.40
2019-05-16T18:02:59.012Z,91.93
2019-05-16T18:05:56.746Z,97.27
2019-05-16T18:08:52.924Z,92.90
2019-05-16T18:11:48.752Z,93.50
2019-05-16T18:14:47.466Z,94.67
2019-05-16T18:17:41.365Z,93.53
2019-05-16T18:20:39.454Z,96.80
2019-05-16T18:23:36.903Z,95.07
2019-05-16T18:26:32.316Z,93.80
2019-05-16T18:29:30.253Z,96.97
2019-05-16T18:32:26.689Z,103.10
2019-05-16T18:35:22.115Z,95.17
2019-05-16T18:38:17.709Z,96.57
2019-05-16T18:41:16.626Z,94.73
2019-05-16T18:44:27.272Z,95.50
2019-05-16T18:47:23.630Z,94.80
2019-05-16T18:50:21.374Z,93.97
2019-05-16T18:53:18.667Z,95.00
2019-05-16T18:56:16.782Z,93.77
2019-05-16T18:59:11.344Z,95.00
2019-05-16T19:02:10.442Z,94.87
2019-05-16T19:05:06.986Z,94.27
2019-05-16T19:08:01.626Z,94.50
2019-05-16T19:11:00.061Z,95.10
2019-05-16T19:13:56.348Z,97.90
2019-05-16T19:16:51.222Z,93.70
2019-05-16T19:19:46.898Z,94.93
2019-05-16T19:22:44.037Z,96.20
2019-05-16T19:25:47.851Z,96.70
2019-05-16T19:28:43.669Z,96.77
2019-05-16T19:31:41.014Z,96.70
2019-05-16T19:34:37.965Z,97.07
2019-05-16T19:37:40.358Z,97.10
2019-05-16T19:40:31.735Z,97.47
2019-05-16T19:43:29.011Z,98.00
2019-05-16T19:46:27.161Z,96.10
2019-05-16T19:49:22.003Z,98.90
2019-05-16T19:52:18.838Z,101.70
2019-05-16T19:55:16.757Z,102.50
2019-05-16T19:58:13.476Z,102.07
2019-05-16T20:01:10.736Z,100.87
2019-05-16T20:04:08.779Z,99.50
2019-05-16T20:07:07.241Z,98.60
2019-05-16T20:10:02.213Z,101.57
2019-05-16T20:12:58.140Z,99.20
2019-05-16T20:15:56.555Z,103.20
2019-05-16T20:18:50.469Z,100.10
2019-05-16T20:21:47.692Z,102.90
2019-05-16T20:24:46.737Z,101.30
2019-05-16T20:27:41.542Z,102.00
2019-05-16T20:30:37.263Z,99.73
2019-05-16T20:33:33.161Z,98.00
2019-05-16T20:36:29.813Z,99.60
2019-05-16T20:39:26.853Z,99.37
2019-05-16T20:42:23.379Z,101.47
2019-05-16T20:45:20.147Z,101.50
2019-05-16T20:48:18.596Z,102.07
2019-05-16T20:51:20.277Z,101.40
2019-05-16T20:54:17.361Z,100.50
2019-05-16T20:57:11.562Z,100.80
2019-05-16T21:00:08.365Z,99.90
2019-05-16T21:03:04.013Z,99.90
2019-05-16T21:06:01.914Z,100.07
2019-05-16T21:08:57.651Z,100.40
2019-05-16T21:11:56.819Z,97.87
2019-05-16T21:14:50.886Z,100.10
2019-05-16T21:17:46.926Z,100.17
2019-05-16T21:20:42.687Z,99.67
2019-05-16T21:23:40.701Z,103.90
2019-05-16T21:26:37.353Z,103.60
2019-05-16T21:29:36.778Z,110.35
2019-05-16T21:32:30.110Z,110.97
2019-05-16T21:35:27.998Z,126.77
2019-05-16T21:38:26.951Z,102.07
2019-05-16T21:41:21.731Z,101.47
2019-05-16T21:44:17.556Z,101.00
2019-05-16T21:47:19.283Z,102.50
2019-05-16T21:50:19.038Z,100.80
2019-05-16T21:53:14.295Z,102.40
2019-05-16T21:56:11.001Z,100.20
2019-05-16T21:59:07.708Z,101.33
2019-05-16T22:02:03.411Z,101.27
2019-05-16T22:05:00.429Z,99.13
2019-05-16T22:07:56.768Z,101.87
2019-05-16T22:10:52.066Z,101.53
2019-05-16T22:13:50.869Z,103.10
2019-05-16T22:16:56.885Z,101.77
2019-05-16T22:19:52.552Z,103.97
2019-05-16T22:22:48.344Z,99.60
2019-05-16T22:25:48.904Z,102.80
2019-05-16T22:28:41.953Z,101.82
2019-05-16T22:31:39.040Z,102.80
2019-05-16T22:34:36.827Z,100.77
2019-05-16T22:37:32.506Z,101.85
2019-05-16T22:40:28.314Z,101.27
2019-05-16T22:43:26.606Z,98.17
2019-05-16T22:46:22.094Z,102.75
2019-05-16T22:49:18.578Z,102.27
2019-05-16T22:52:13.770Z,102.90
2019-05-16T22:55:11.896Z,101.37
2019-05-16T22:58:08.260Z,99.77
2019-05-16T23:01:06.888Z,99.90
2019-05-16T23:04:00.989Z,100.90
2019-05-16T23:06:58.607Z,105.07
2019-05-16T23:09:56.376Z,103.17
2019-05-16T23:12:51.450Z,103.70
2019-05-16T23:15:52.062Z,102.13
2019-05-16T23:18:47.664Z,101.63
2019-05-16T23:21:44.319Z,101.50
2019-05-16T23:24:46.375Z,104.23
2019-05-16T23:27:43.339Z,100.10
2019-05-16T23:30:40.440Z,104.70
2019-05-16T23:33:36.526Z,103.20
2019-05-16T23:36:36.854Z,102.30
2019-05-16T23:39:31.938Z,103.87
2019-05-16T23:42:28.794Z,102.80
2019-05-16T23:45:27.436Z,101.17
2019-05-16T23:48:20.833Z,102.83
2019-05-16T23:51:19.515Z,103.95
2019-05-16T23:54:17.079Z,102.60
2019-05-16T23:57:13.427Z,105.87
